createdAt,value
2022-10-18T00:01:25.917Z,14.68
2022-10-18T00:03:53.946Z,13.78
2022-10-18T00:06:21.701Z,12.62
2022-10-18T00:08:51.844Z,11.68
2022-10-18T00:11:20.214Z,10.95
2022-10-18T00:13:48.184Z,10.91
2022-10-18T00:16:20.422Z,12.52
2022-10-18T00:18:48.611Z,13.88
2022-10-18T00:21:24.037Z,14.65
2022-10-18T00:23:53.700Z,14.48
2022-10-18T00:26:28.809Z,13.07
2022-10-18T00:29:01.155Z,11.83
2022-10-18T00:31:35.758Z,11.40
2022-10-18T00:34:10.194Z,12.64
2022-10-18T00:36:38.386Z,13.76
2022-10-18T00:39:08.589Z,14.55
2022-10-18T00:41:39.728Z,14.75
2022-10-18T00:44:28.658Z,13.68
2022-10-18T00:47:07.435Z,12.37
2022-10-18T00:49:49.272Z,11.41
2022-10-18T00:52:27.326Z,11.25
2022-10-18T00:54:57.609Z,12.81
2022-10-18T00:57:26.679Z,14.11
2022-10-18T00:59:54.980Z,14.62
2022-10-18T01:02:24.798Z,13.67
2022-10-18T01:04:52.975Z,12.59
2022-10-18T01:07:48.154Z,11.79
2022-10-18T01:11:08.079Z,11.65
2022-10-18T01:13:56.888Z,13.18
2022-10-18T01:16:54.755Z,14.00
2022-10-18T01:20:02.636Z,14.75
2022-10-18T01:22:42.681Z,14.26
2022-10-18T01:25:58.124Z,12.71
2022-10-18T01:29:10.025Z,12.07
2022-10-18T01:31:49.927Z,13.58
2022-10-18T01:34:20.645Z,14.26
2022-10-18T01:36:55.976Z,14.72
2022-10-18T01:39:31.140Z,13.94
2022-10-18T01:42:03.148Z,12.69
2022-10-18T01:44:34.464Z,11.77
2022-10-18T01:47:07.163Z,11.58
2022-10-18T01:49:35.139Z,13.01
2022-10-18T01:52:03.214Z,14.33
2022-10-18T01:54:41.776Z,14.84
2022-10-18T01:57:54.919Z,13.83
2022-10-18T02:00:29.928Z,12.49
2022-10-18T02:03:15.613Z,11.69
2022-10-18T02:05:43.204Z,11.59
2022-10-18T02:08:35.381Z,13.04
2022-10-18T02:11:12.904Z,14.36
2022-10-18T02:13:52.025Z,14.70
2022-10-18T02:16:37.422Z,13.60
2022-10-18T02:19:26.438Z,12.40
2022-10-18T02:21:58.155Z,11.53
2022-10-18T02:24:35.690Z,11.51
2022-10-18T02:27:04.033Z,13.08
2022-10-18T02:29:32.711Z,14.24
2022-10-18T02:32:24.549Z,15.01
2022-10-18T02:35:13.304Z,14.85
2022-10-18T02:37:43.245Z,13.44
2022-10-18T02:40:11.694Z,12.43
2022-10-18T02:42:54.640Z,11.73
2022-10-18T02:45:25.567Z,11.72
2022-10-18T02:47:55.527Z,13.28
2022-10-18T02:50:23.414Z,14.60
2022-10-18T02:52:51.580Z,15.03
2022-10-18T02:55:20.169Z,14.02
2022-10-18T02:57:48.593Z,12.86
2022-10-18T03:00:16.334Z,11.99
2022-10-18T03:02:44.082Z,11.68
2022-10-18T03:05:12.071Z,12.97
2022-10-18T03:07:40.318Z,14.31
2022-10-18T03:10:08.684Z,14.91
2022-10-18T03:12:36.457Z,14.01
2022-10-18T03:15:04.829Z,12.92
2022-10-18T03:17:34.572Z,12.08
2022-10-18T03:20:03.008Z,11.81
2022-10-18T03:22:31.320Z,13.13
2022-10-18T03:24:58.905Z,14.45
2022-10-18T03:27:26.580Z,14.93
2022-10-18T03:29:56.689Z,13.90
2022-10-18T03:32:24.876Z,12.76
2022-10-18T03:34:53.631Z,11.91
2022-10-18T03:37:21.328Z,11.67
2022-10-18T03:39:50.074Z,13.02
2022-10-18T03:42:18.024Z,14.38
2022-10-18T03:44:46.597Z,14.97
2022-10-18T03:47:14.639Z,14.07
2022-10-18T03:49:42.726Z,13.00
2022-10-18T03:52:11.164Z,12.20
2022-10-18T03:54:38.814Z,11.93
2022-10-18T03:57:06.530Z,13.11
2022-10-18T03:59:36.979Z,14.15
2022-10-18T04:02:08.049Z,14.78
2022-10-18T04:04:36.007Z,14.83
2022-10-18T04:07:08.233Z,13.59
2022-10-18T04:09:35.906Z,12.31
2022-10-18T04:12:03.892Z,11.70
2022-10-18T04:14:32.103Z,12.74
2022-10-18T04:17:00.119Z,13.93
2022-10-18T04:19:27.840Z,14.77
2022-10-18T04:21:55.573Z,14.91
2022-10-18T04:24:27.677Z,13.77
2022-10-18T04:26:55.414Z,12.61
2022-10-18T04:29:23.120Z,11.73
2022-10-18T04:31:53.189Z,11.48
2022-10-18T04:34:20.968Z,12.70
2022-10-18T04:36:50.734Z,13.87
2022-10-18T04:39:18.870Z,14.58
2022-10-18T04:41:46.884Z,14.66
2022-10-18T04:44:14.919Z,13.47
2022-10-18T04:46:42.590Z,12.27
2022-10-18T04:49:10.406Z,11.38
2022-10-18T04:51:38.376Z,11.17
2022-10-18T04:54:06.734Z,12.63
2022-10-18T04:56:34.670Z,14.07
2022-10-18T04:59:02.308Z,14.97
2022-10-18T05:01:30.043Z,15.07
2022-10-18T05:03:57.886Z,13.86
2022-10-18T05:06:25.938Z,12.59
2022-10-18T05:08:54.189Z,11.74
2022-10-18T05:11:22.516Z,12.65
2022-10-18T05:13:52.354Z,14.06
2022-10-18T05:16:20.563Z,15.03
2022-10-18T05:18:49.412Z,14.78
2022-10-18T05:21:17.402Z,13.54
2022-10-18T05:23:47.040Z,12.45
2022-10-18T05:26:14.736Z,11.62
2022-10-18T05:28:42.472Z,11.44
2022-10-18T05:31:12.426Z,12.93
2022-10-18T05:33:41.949Z,14.38
2022-10-18T05:36:11.503Z,15.04
2022-10-18T05:38:43.570Z,15.08
2022-10-18T05:41:14.387Z,13.85
2022-10-18T05:43:42.165Z,12.65
2022-10-18T05:46:15.065Z,11.81
2022-10-18T05:48:49.935Z,11.64
2022-10-18T05:51:20.071Z,13.19
2022-10-18T05:53:48.339Z,14.54
2022-10-18T05:56:16.217Z,15.01
2022-10-18T05:58:44.398Z,13.97
2022-10-18T06:01:12.292Z,12.74
2022-10-18T06:03:40.616Z,11.81
2022-10-18T06:06:13.089Z,11.47
2022-10-18T06:08:44.557Z,12.78
2022-10-18T06:11:16.648Z,14.09
2022-10-18T06:13:49.426Z,14.92
2022-10-18T06:16:22.370Z,14.91
2022-10-18T06:18:56.944Z,13.53
2022-10-18T06:21:25.179Z,12.21
2022-10-18T06:23:58.013Z,11.38
2022-10-18T06:26:28.657Z,12.13
2022-10-18T06:28:56.589Z,13.44
2022-10-18T06:31:27.863Z,14.19
2022-10-18T06:33:59.368Z,14.59
2022-10-18T06:36:30.473Z,14.80
2022-10-18T06:39:01.502Z,13.63
2022-10-18T06:41:30.344Z,12.36
2022-10-18T06:44:03.300Z,11.44
2022-10-18T06:46:31.354Z,11.40
2022-10-18T06:48:59.130Z,12.80
2022-10-18T06:51:27.128Z,14.06
2022-10-18T06:54:06.315Z,14.54
2022-10-18T06:56:43.831Z,13.65
2022-10-18T06:59:14.619Z,12.43
2022-10-18T07:01:43.694Z,11.60
2022-10-18T07:04:11.783Z,12.25
2022-10-18T07:06:40.652Z,13.44
2022-10-18T07:09:08.990Z,14.32
2022-10-18T07:11:37.152Z,14.80
2022-10-18T07:14:07.313Z,13.98
2022-10-18T07:16:35.553Z,12.62
2022-10-18T07:19:04.269Z,11.60
2022-10-18T07:21:34.187Z,11.32
2022-10-18T07:24:01.901Z,12.59
2022-10-18T07:26:38.733Z,13.79
2022-10-18T07:29:12.271Z,14.45
2022-10-18T07:31:44.531Z,14.16
2022-10-18T07:34:14.255Z,13.02
2022-10-18T07:36:43.453Z,11.97
2022-10-18T07:39:11.395Z,11.81
2022-10-18T07:41:40.170Z,13.02
2022-10-18T07:44:13.127Z,14.07
2022-10-18T07:46:41.060Z,14.75
2022-10-18T07:49:08.953Z,14.56
2022-10-18T07:51:36.964Z,13.26
2022-10-18T07:54:04.839Z,12.15
2022-10-18T07:56:32.794Z,12.75
2022-10-18T07:59:02.407Z,13.85
2022-10-18T08:01:30.402Z,14.49
2022-10-18T08:04:07.817Z,14.65
2022-10-18T08:06:37.589Z,13.45
2022-10-18T08:09:07.974Z,12.25
2022-10-18T08:11:35.961Z,12.32
2022-10-18T08:14:04.258Z,13.29
2022-10-18T08:16:40.011Z,13.38
2022-10-18T08:19:09.577Z,13.77
2022-10-18T08:21:37.660Z,13.99
2022-10-18T08:24:05.897Z,14.25
2022-10-18T08:26:36.627Z,14.35
2022-10-18T08:29:24.835Z,13.20
2022-10-18T08:31:54.855Z,12.58
2022-10-18T08:34:23.993Z,13.70
2022-10-18T08:36:51.893Z,14.64
2022-10-18T08:39:19.684Z,14.26
2022-10-18T08:42:06.244Z,13.05
2022-10-18T08:44:46.635Z,12.50
2022-10-18T08:47:42.482Z,13.51
2022-10-18T08:50:32.164Z,14.42
2022-10-18T08:53:36.305Z,14.53
2022-10-18T08:56:21.462Z,13.37
2022-10-18T08:58:50.014Z,12.39
2022-10-18T09:05:11.453Z,13.58
2022-10-18T09:08:20.160Z,14.68
2022-10-18T09:11:17.099Z,13.95
2022-10-18T09:14:26.646Z,12.75
2022-10-18T09:17:51.521Z,13.08
2022-10-18T09:20:31.162Z,14.12
2022-10-18T09:23:33.431Z,14.35
2022-10-18T09:26:23.689Z,14.57
2022-10-18T09:29:38.335Z,13.55
2022-10-18T09:32:47.188Z,12.49
2022-10-18T09:35:32.777Z,13.93
2022-10-18T09:38:09.518Z,14.89
2022-10-18T09:40:56.447Z,14.27
2022-10-18T09:43:42.165Z,12.89
2022-10-18T09:46:14.344Z,12.82
2022-10-18T09:49:15.676Z,13.71
2022-10-18T09:51:46.156Z,14.99
2022-10-18T09:54:42.502Z,15.05
2022-10-18T09:57:28.393Z,13.84
2022-10-18T09:59:59.481Z,12.99
2022-10-18T10:02:28.244Z,13.70
2022-10-18T10:04:56.801Z,14.66
2022-10-18T10:07:38.942Z,14.35
2022-10-18T10:10:15.790Z,13.27
2022-10-18T10:12:48.260Z,13.90
2022-10-18T10:15:31.384Z,14.79
2022-10-18T10:18:31.028Z,14.57
2022-10-18T10:21:07.561Z,13.53
2022-10-18T10:23:45.119Z,13.15
2022-10-18T10:26:37.368Z,14.30
2022-10-18T10:29:53.960Z,15.47
2022-10-18T10:34:57.105Z,13.27
2022-10-18T10:37:25.377Z,12.81
2022-10-18T10:40:28.782Z,13.56
2022-10-18T10:43:08.922Z,14.30
2022-10-18T10:46:15.749Z,13.84
2022-10-18T10:49:04.445Z,12.65
2022-10-18T10:51:43.933Z,13.51
2022-10-18T10:54:23.393Z,14.46
2022-10-18T10:57:11.392Z,14.07
2022-10-18T11:00:06.342Z,13.11
2022-10-18T11:02:37.517Z,12.45
2022-10-18T11:05:29.476Z,13.27
2022-10-18T11:08:04.362Z,14.04
2022-10-18T11:10:46.236Z,14.77
2022-10-18T11:14:32.092Z,14.01
2022-10-18T11:17:13.064Z,12.97
2022-10-18T11:20:13.702Z,14.20
2022-10-18T11:23:08.944Z,14.47
2022-10-18T11:26:05.333Z,13.54
2022-10-18T11:29:04.295Z,12.85
2022-10-18T11:32:06.716Z,14.48
2022-10-18T11:34:51.920Z,15.15
2022-10-18T11:38:13.269Z,14.30
2022-10-18T11:41:31.196Z,13.27
2022-10-18T11:44:13.841Z,12.69
2022-10-18T11:47:43.034Z,13.42
2022-10-18T11:50:42.838Z,14.54
2022-10-18T11:53:46.142Z,13.31
2022-10-18T11:56:56.515Z,12.56
2022-10-18T12:00:08.211Z,12.52
2022-10-18T12:03:13.998Z,14.18
2022-10-18T12:05:54.521Z,13.87
2022-10-18T12:08:38.994Z,13.12
2022-10-18T12:11:19.697Z,12.65
2022-10-18T12:14:08.996Z,12.85
2022-10-18T12:17:20.224Z,14.22
2022-10-18T12:19:35.231Z,14.10
2022-10-18T12:22:58.326Z,13.56
2022-10-18T12:25:30.372Z,12.95
2022-10-18T12:28:13.346Z,12.79
2022-10-18T12:30:55.143Z,13.95
2022-10-18T12:33:30.695Z,14.19
2022-10-18T12:36:21.489Z,13.51
2022-10-18T12:38:59.155Z,12.91
2022-10-18T12:41:36.868Z,12.56
2022-10-18T12:44:27.992Z,13.58
2022-10-18T12:47:01.783Z,15.57
2022-10-18T12:49:40.213Z,16.17
2022-10-18T12:52:23.093Z,15.25
2022-10-18T12:55:20.817Z,14.36
2022-10-18T12:57:56.598Z,13.62
2022-10-18T13:00:49.959Z,13.11
2022-10-18T13:03:20.964Z,12.62
2022-10-18T13:05:54.455Z,12.27
2022-10-18T13:08:42.030Z,12.22
2022-10-18T13:11:13.005Z,13.92
2022-10-18T13:14:49.401Z,14.82
2022-10-18T13:17:43.614Z,13.85
2022-10-18T13:20:50.062Z,13.18
2022-10-18T13:23:36.964Z,12.63
2022-10-18T13:26:34.406Z,12.30
2022-10-18T13:29:34.580Z,12.03
2022-10-18T13:32:28.609Z,12.03
2022-10-18T13:34:56.661Z,13.68
2022-10-18T13:37:29.882Z,14.21
2022-10-18T13:40:38.208Z,13.56
2022-10-18T13:43:53.156Z,12.83
2022-10-18T13:46:38.711Z,12.29
2022-10-18T13:49:45.043Z,11.93
2022-10-18T13:52:32.638Z,11.78
2022-10-18T13:55:57.790Z,13.08
2022-10-18T13:59:06.114Z,13.66
2022-10-18T14:02:01.483Z,13.00
2022-10-18T14:05:16.586Z,12.56
2022-10-18T14:07:52.380Z,12.18
2022-10-18T14:11:01.490Z,11.98
2022-10-18T14:14:03.046Z,11.94
2022-10-18T14:16:49.518Z,13.66
2022-10-18T14:19:26.216Z,14.26
2022-10-18T14:22:12.296Z,13.68
2022-10-18T14:24:52.500Z,13.06
2022-10-18T14:27:27.923Z,12.60
2022-10-18T14:30:17.316Z,12.30
2022-10-18T14:33:02.748Z,12.02
2022-10-18T14:35:35.633Z,12.02
2022-10-18T14:38:13.750Z,13.52
2022-10-18T14:40:45.082Z,14.57
2022-10-18T14:43:20.889Z,13.90
2022-10-18T14:45:50.078Z,13.16
2022-10-18T14:48:22.669Z,12.61
2022-10-18T14:51:00.679Z,12.23
2022-10-18T14:53:37.794Z,11.92
2022-10-18T14:56:08.305Z,11.69
2022-10-18T14:58:38.274Z,11.96
2022-10-18T15:01:07.495Z,13.67
2022-10-18T15:03:37.082Z,15.06
2022-10-18T15:06:09.303Z,14.81
2022-10-18T15:08:42.570Z,13.83
2022-10-18T15:11:17.321Z,13.07
2022-10-18T15:14:03.936Z,12.45
2022-10-18T15:16:33.265Z,11.97
2022-10-18T15:19:16.287Z,12.04
2022-10-18T15:22:38.492Z,13.80
2022-10-18T15:25:36.144Z,15.59
2022-10-18T15:28:10.542Z,15.37
2022-10-18T15:30:44.309Z,14.31
2022-10-18T15:33:23.965Z,13.47
2022-10-18T15:35:55.158Z,12.83
2022-10-18T15:38:28.922Z,12.40
2022-10-18T15:40:58.145Z,12.02
2022-10-18T15:43:27.539Z,11.66
2022-10-18T15:46:03.236Z,11.33
2022-10-18T15:48:35.512Z,11.60
2022-10-18T15:51:08.422Z,13.41
2022-10-18T15:53:54.863Z,15.01
2022-10-18T15:56:36.965Z,14.92
2022-10-18T15:59:25.407Z,13.73
2022-10-18T16:01:55.453Z,12.78
2022-10-18T16:04:33.628Z,12.17
2022-10-18T16:07:01.314Z,11.66
2022-10-18T16:09:30.829Z,11.23
2022-10-18T16:11:59.195Z,10.85
2022-10-18T16:14:27.251Z,10.97
2022-10-18T16:17:03.882Z,12.63
2022-10-18T16:19:36.695Z,14.25
2022-10-18T16:22:07.151Z,14.78
2022-10-18T16:24:36.241Z,13.79
2022-10-18T16:27:05.586Z,12.72
2022-10-18T16:29:36.385Z,11.93
2022-10-18T16:32:07.542Z,11.31
2022-10-18T16:34:35.217Z,10.86
2022-10-18T16:37:03.292Z,10.99
2022-10-18T16:39:37.397Z,12.74
2022-10-18T16:42:07.657Z,14.29
2022-10-18T16:44:35.397Z,14.96
2022-10-18T16:47:04.332Z,14.42
2022-10-18T16:49:32.176Z,13.27
2022-10-18T16:52:03.875Z,12.25
2022-10-18T16:54:36.947Z,11.50
2022-10-18T16:57:05.656Z,10.91
2022-10-18T16:59:35.200Z,10.43
2022-10-18T17:02:09.030Z,10.48
2022-10-18T17:04:37.549Z,12.16
2022-10-18T17:07:07.481Z,13.66
2022-10-18T17:09:37.844Z,14.31
2022-10-18T17:12:07.290Z,13.37
2022-10-18T17:14:38.705Z,12.08
2022-10-18T17:17:13.292Z,11.06
2022-10-18T17:19:42.930Z,10.32
2022-10-18T17:22:11.233Z,10.16
2022-10-18T17:24:40.550Z,11.57
2022-10-18T17:27:14.263Z,12.98
2022-10-18T17:29:42.076Z,13.13
2022-10-18T17:32:13.667Z,11.99
2022-10-18T17:39:55.962Z,10.26
2022-10-18T17:42:25.305Z,11.92
2022-10-18T17:44:55.542Z,13.31
2022-10-18T17:47:29.029Z,13.76
2022-10-18T17:49:58.868Z,12.72
2022-10-18T17:52:27.862Z,11.60
2022-10-18T17:54:55.981Z,10.77
2022-10-18T17:57:27.697Z,10.12
2022-10-18T17:59:57.019Z,9.64
2022-10-18T18:02:26.131Z,10.51
2022-10-18T18:04:55.473Z,12.16
2022-10-18T18:07:23.993Z,13.26
2022-10-18T18:09:53.263Z,13.60
2022-10-18T18:12:22.198Z,12.55
2022-10-18T18:14:51.205Z,11.43
2022-10-18T18:17:28.576Z,10.54
2022-10-18T18:20:10.328Z,9.81
2022-10-18T18:22:41.618Z,9.79
2022-10-18T18:25:10.861Z,11.45
2022-10-18T18:27:39.323Z,12.97
2022-10-18T18:30:19.798Z,13.51
2022-10-18T18:32:48.047Z,12.50
2022-10-18T18:35:16.839Z,11.46
2022-10-18T18:37:44.635Z,10.68
2022-10-18T18:40:15.229Z,10.10
2022-10-18T18:42:43.166Z,10.05
2022-10-18T18:45:11.308Z,11.54
2022-10-18T18:47:42.758Z,13.08
2022-10-18T18:50:14.785Z,13.70
2022-10-18T18:52:43.456Z,12.72
2022-10-18T18:55:16.379Z,11.56
2022-10-18T18:57:48.348Z,10.67
2022-10-18T19:00:19.193Z,10.04
2022-10-18T19:02:47.614Z,9.93
2022-10-18T19:05:24.680Z,11.41
2022-10-18T19:08:05.768Z,12.57
2022-10-18T19:10:34.264Z,13.62
2022-10-18T19:13:11.635Z,13.78
2022-10-18T19:15:50.615Z,12.59
2022-10-18T19:18:23.894Z,11.25
2022-10-18T19:20:53.527Z,10.20
2022-10-18T19:23:23.054Z,9.43
2022-10-18T19:25:56.795Z,9.30
2022-10-18T19:28:26.331Z,10.98
2022-10-18T19:30:56.140Z,12.54
2022-10-18T19:33:41.291Z,13.18
2022-10-18T19:36:16.890Z,11.99
2022-10-18T19:38:47.236Z,10.78
2022-10-18T19:41:17.110Z,10.03
2022-10-18T19:43:50.753Z,11.18
2022-10-18T19:46:19.758Z,12.57
2022-10-18T19:48:47.881Z,13.07
2022-10-18T19:51:20.262Z,12.10
2022-10-18T19:53:57.468Z,10.78
2022-10-18T19:56:28.064Z,9.82
2022-10-18T19:59:08.364Z,9.85
2022-10-18T20:01:37.478Z,11.51
2022-10-18T20:04:09.865Z,12.77
2022-10-18T20:06:42.422Z,13.01
2022-10-18T20:09:16.211Z,11.87
2022-10-18T20:11:49.763Z,10.72
2022-10-18T20:14:21.521Z,9.87
2022-10-18T20:16:49.957Z,9.53
2022-10-18T20:19:17.773Z,10.63
2022-10-18T20:21:55.539Z,11.99
2022-10-18T20:24:24.058Z,12.08
2022-10-18T20:29:25.672Z,9.88
2022-10-18T20:31:55.778Z,9.03
2022-10-18T20:34:26.144Z,8.86
2022-10-18T20:36:55.564Z,10.47
2022-10-18T20:39:24.356Z,11.88
2022-10-18T20:41:53.022Z,12.53
2022-10-18T20:44:29.067Z,12.22
2022-10-18T20:46:56.946Z,10.88
2022-10-18T20:49:25.704Z,9.79
2022-10-18T20:51:53.728Z,9.04
2022-10-18T20:54:23.559Z,8.44
2022-10-18T20:56:51.850Z,8.41
2022-10-18T20:59:20.885Z,9.92
2022-10-18T21:01:50.161Z,11.41
2022-10-18T21:04:21.529Z,12.14
2022-10-18T21:06:50.738Z,11.58
2022-10-18T21:09:21.314Z,10.20
2022-10-18T21:11:58.358Z,9.10
2022-10-18T21:14:26.709Z,8.78
2022-10-18T21:16:55.828Z,10.25
2022-10-18T21:19:27.694Z,11.42
2022-10-18T21:21:57.954Z,11.20
2022-10-18T21:24:26.979Z,10.03
2022-10-18T21:26:58.054Z,8.98
2022-10-18T21:29:31.327Z,9.48
2022-10-18T21:32:01.063Z,10.67
2022-10-18T21:34:30.776Z,11.63
2022-10-18T21:36:58.605Z,11.90
2022-10-18T21:39:26.499Z,10.84
2022-10-18T21:41:55.222Z,9.64
2022-10-18T21:44:23.041Z,8.58
2022-10-18T21:46:51.010Z,7.87
2022-10-18T21:49:19.647Z,7.35
2022-10-18T21:51:47.476Z,7.35
2022-10-18T21:54:28.493Z,9.09
2022-10-18T21:56:58.602Z,10.83
2022-10-18T21:59:27.020Z,11.44
2022-10-18T22:01:56.898Z,10.35
2022-10-18T22:04:25.852Z,9.14
2022-10-18T22:06:54.562Z,8.26
2022-10-18T22:09:22.448Z,7.61
2022-10-18T22:11:54.039Z,8.00
2022-10-18T22:14:23.345Z,9.45
2022-10-18T22:16:52.328Z,10.58
2022-10-18T22:19:21.785Z,10.26
2022-10-18T22:21:50.487Z,9.10
2022-10-18T22:24:20.266Z,8.17
2022-10-18T22:26:50.199Z,9.21
2022-10-18T22:29:21.411Z,10.48
2022-10-18T22:31:57.150Z,11.46
2022-10-18T22:34:29.782Z,11.03
2022-10-18T22:36:58.957Z,9.62
2022-10-18T22:39:31.640Z,8.41
2022-10-18T22:41:59.546Z,7.71
2022-10-18T22:44:31.182Z,8.97
2022-10-18T22:47:01.683Z,10.52
2022-10-18T22:49:30.111Z,11.15
2022-10-18T22:51:59.882Z,10.00
2022-10-18T22:54:30.425Z,8.69
2022-10-18T22:57:00.356Z,7.75
2022-10-18T22:59:29.655Z,7.09
2022-10-18T23:01:58.233Z,7.11
2022-10-18T23:04:26.478Z,8.80
2022-10-18T23:06:54.451Z,10.33
2022-10-18T23:09:23.064Z,10.92
2022-10-18T23:11:54.314Z,9.89
2022-10-18T23:14:25.490Z,8.72
2022-10-18T23:16:55.446Z,7.88
2022-10-18T23:19:26.608Z,7.24
2022-10-18T23:21:54.235Z,6.79
2022-10-18T23:24:27.368Z,6.93
2022-10-18T23:26:57.881Z,9.20
2022-10-18T23:29:34.272Z,10.78
2022-10-18T23:32:02.055Z,11.20
2022-10-18T23:34:29.869Z,10.04
2022-10-18T23:36:58.273Z,8.79
2022-10-18T23:39:28.295Z,7.74
2022-10-18T23:41:59.933Z,7.39
2022-10-18T23:44:30.683Z,8.90
2022-10-18T23:47:06.421Z,10.21
2022-10-18T23:49:34.355Z,10.91
2022-10-18T23:52:03.306Z,11.03
2022-10-18T23:54:31.292Z,9.81
2022-10-18T23:57:00.656Z,8.50
2022-10-18T23:59:28.636Z,7.40
